Agia Marina — SX5375 — position and weather

sailwx.info

Track history (hours):
 
Tides and Currents Weather Stations Pressure Air Temp Water Temp Dewpoint Dewpoint Depression Visibility Wind Speed Wind Dir Waves Ship Positions

Agia Marina

Last reported at 2018-Aug-14 15:00 UTC. Time now 2018-Aug-14 15:19 UTC.
Position N 37°27' E 024°58'.

Length 59 m; draft 2.5 m.

Type: Ship. MMSI: 237042500.

Date/timePositionNaut miles runAvg speedWind from/ knotsBaromVisibWave heightAir tempDewpointWater temp
2018-Aug-14 15:00N 37°27' E 024°58'2 3.7
2018-Aug-14 14:30N 37°26' E 024°56'0 0.0
2018-Aug-14 13:59N 37°26' E 024°56'0 0.0
2018-Aug-14 13:28N 37°26' E 024°56'0 0.0
2018-Aug-14 12:49N 37°26' E 024°56'0 0.0
2018-Aug-14 12:22N 37°26' E 024°56'0 0.0
2018-Aug-14 11:52N 37°26' E 024°56'0 0.0
2018-Aug-14 11:24N 37°26' E 024°56'0 0.0
2018-Aug-14 09:51N 37°26' E 024°56'0 0.0
2018-Aug-14 09:24N 37°26' E 024°56'0 0.0
2018-Aug-14 09:00N 37°26' E 024°56'0 0.0
2018-Aug-14 08:30N 37°26' E 024°56'0 0.0
2018-Aug-14 07:46N 37°26' E 024°56'0 0.0
2018-Aug-14 07:28N 37°26' E 024°56'0 0.0
2018-Aug-14 06:56N 37°26' E 024°56'0 0.0
2018-Aug-14 06:26N 37°26' E 024°56'0 0.0
2018-Aug-14 05:56N 37°26' E 024°56'0 0.0
2018-Aug-14 05:24N 37°26' E 024°56'0 0.0
2018-Aug-14 04:59N 37°26' E 024°56'0 0.0
2018-Aug-14 04:27N 37°26' E 024°56'0 0.0
2018-Aug-14 03:20N 37°26' E 024°56'0 0.0
2018-Aug-14 03:00N 37°26' E 024°56'0 0.0
2018-Aug-14 02:30N 37°26' E 024°56'0 0.0
2018-Aug-14 01:46N 37°26' E 024°56'0 0.0
2018-Aug-14 01:28N 37°26' E 024°56'0 0.0
2018-Aug-14 01:00N 37°26' E 024°56'0 0.0
2018-Aug-14 00:30N 37°26' E 024°56'0 0.0
2018-Aug-14 00:00N 37°26' E 024°56'0 0.0
2018-Aug-13 23:30N 37°26' E 024°56'0 0.0
2018-Aug-13 23:00N 37°26' E 024°56'0 0.0
2018-Aug-13 22:30N 37°26' E 024°56'0 0.0
2018-Aug-13 22:00N 37°26' E 024°56'0 0.0
2018-Aug-13 21:30N 37°26' E 024°56'0 0.0
2018-Aug-13 21:00N 37°26' E 024°56'0 0.0
2018-Aug-13 20:30N 37°26' E 024°56'0 0.0
2018-Aug-13 20:00N 37°26' E 024°56'3 5.4
2018-Aug-13 19:30N 37°25' E 024°59'3 5.8
2018-Aug-13 19:00N 37°24' E 025°03'3 5.9
2018-Aug-13 18:30N 37°23' E 025°06'3 6.2
2018-Aug-13 18:00N 37°23' E 025°10'3 6.0
2018-Aug-13 17:30N 37°22' E 025°14'1 1.0
2018-Aug-13 17:00N 37°23' E 025°14'0 0.0
2018-Aug-13 16:30N 37°23' E 025°14'0 0.0
2018-Aug-13 16:00N 37°23' E 025°14'0 0.0
2018-Aug-13 15:30N 37°23' E 025°14'2 4.3
2018-Aug-13 15:00N 37°21' E 025°17'3 6.1
2018-Aug-13 14:30N 37°21' E 025°20'3 6.3
2018-Aug-13 14:00N 37°22' E 025°24'3 6.3
2018-Aug-13 13:30N 37°23' E 025°28'3 6.8
2018-Aug-13 13:00N 37°24' E 025°32'3 6.9
2018-Aug-13 12:30N 37°27' E 025°34'3 6.2
2018-Aug-13 12:00N 37°30' E 025°36'3 6.6
2018-Aug-13 11:30N 37°33' E 025°39'2 5.1
2018-Aug-13 11:00N 37°34' E 025°41'2 4.3
2018-Aug-13 10:30N 37°33' E 025°44'3 5.1
2018-Aug-13 10:00N 37°33' E 025°47'3 5.2
2018-Aug-13 09:30N 37°32' E 025°50'3 5.5
2018-Aug-13 09:00N 37°31' E 025°53'  
2018-Aug-05 01:50N 36°59' E 025°22'2 7.3
2018-Aug-05 01:30N 37°01' E 025°21'3 6.1
2018-Aug-05 01:00N 37°05' E 025°20'0 0.1
2018-Aug-05 00:30N 37°04' E 025°20'0 0.0
2018-Aug-05 00:00N 37°04' E 025°20'0 0.0
2018-Aug-04 23:30N 37°04' E 025°20'0 0.0
2018-Aug-04 23:00N 37°04' E 025°20'0 0.0
2018-Aug-04 22:30N 37°04' E 025°20'0 0.0
2018-Aug-04 22:00N 37°04' E 025°20'0 0.0
2018-Aug-04 21:30N 37°04' E 025°20'0 0.0
2018-Aug-04 21:00N 37°04' E 025°20'0 0.0
2018-Aug-04 20:30N 37°04' E 025°20'0 0.0
2018-Aug-04 20:00N 37°04' E 025°20'0 0.0
2018-Aug-04 19:30N 37°04' E 025°20'0 0.0
2018-Aug-04 19:00N 37°04' E 025°20'0 0.1
2018-Aug-04 18:30N 37°04' E 025°20'0 0.1
2018-Aug-04 18:00N 37°04' E 025°20'0 0.0
2018-Aug-04 17:30N 37°04' E 025°20'0 0.0
2018-Aug-04 17:00N 37°04' E 025°20'0 0.0
2018-Aug-04 16:30N 37°04' E 025°20'0 0.0
2018-Aug-04 16:00N 37°04' E 025°20'0 0.0
2018-Aug-04 15:30N 37°04' E 025°20'0 0.0
2018-Aug-04 15:00N 37°04' E 025°20'  
Track history (hours):
 
Tides and Currents Weather Stations Pressure Air Temp Water Temp Dewpoint Dewpoint Depression Visibility Wind Speed Wind Dir Waves Ship Positions

Agia Marina

Last reported at 2018-Aug-14 15:00 UTC. Time now 2018-Aug-14 15:19 UTC.
Position N 37°27' E 024°58'.

Length 59 m; draft 2.5 m.

Type: Ship. MMSI: 237042500.

Date/timePositionNaut miles runAvg speedWind from/ knotsBaromVisibWave heightAir tempDewpointWater temp
2018-Aug-14 15:00N 37°27' E 024°58'2 3.7
2018-Aug-14 14:30N 37°26' E 024°56'0 0.0
2018-Aug-14 13:59N 37°26' E 024°56'0 0.0
2018-Aug-14 13:28N 37°26' E 024°56'0 0.0
2018-Aug-14 12:49N 37°26' E 024°56'0 0.0
2018-Aug-14 12:22N 37°26' E 024°56'0 0.0
2018-Aug-14 11:52N 37°26' E 024°56'0 0.0
2018-Aug-14 11:24N 37°26' E 024°56'0 0.0
2018-Aug-14 09:51N 37°26' E 024°56'0 0.0
2018-Aug-14 09:24N 37°26' E 024°56'0 0.0
2018-Aug-14 09:00N 37°26' E 024°56'0 0.0
2018-Aug-14 08:30N 37°26' E 024°56'0 0.0
2018-Aug-14 07:46N 37°26' E 024°56'0 0.0
2018-Aug-14 07:28N 37°26' E 024°56'0 0.0
2018-Aug-14 06:56N 37°26' E 024°56'0 0.0
2018-Aug-14 06:26N 37°26' E 024°56'0 0.0
2018-Aug-14 05:56N 37°26' E 024°56'0 0.0
2018-Aug-14 05:24N 37°26' E 024°56'0 0.0
2018-Aug-14 04:59N 37°26' E 024°56'0 0.0
2018-Aug-14 04:27N 37°26' E 024°56'0 0.0
2018-Aug-14 03:20N 37°26' E 024°56'0 0.0
2018-Aug-14 03:00N 37°26' E 024°56'0 0.0
2018-Aug-14 02:30N 37°26' E 024°56'0 0.0
2018-Aug-14 01:46N 37°26' E 024°56'0 0.0
2018-Aug-14 01:28N 37°26' E 024°56'0 0.0
2018-Aug-14 01:00N 37°26' E 024°56'0 0.0
2018-Aug-14 00:30N 37°26' E 024°56'0 0.0
2018-Aug-14 00:00N 37°26' E 024°56'0 0.0
2018-Aug-13 23:30N 37°26' E 024°56'0 0.0
2018-Aug-13 23:00N 37°26' E 024°56'0 0.0
2018-Aug-13 22:30N 37°26' E 024°56'0 0.0
2018-Aug-13 22:00N 37°26' E 024°56'0 0.0
2018-Aug-13 21:30N 37°26' E 024°56'0 0.0
2018-Aug-13 21:00N 37°26' E 024°56'0 0.0
2018-Aug-13 20:30N 37°26' E 024°56'0 0.0
2018-Aug-13 20:00N 37°26' E 024°56'3 5.4
2018-Aug-13 19:30N 37°25' E 024°59'3 5.8
2018-Aug-13 19:00N 37°24' E 025°03'3 5.9
2018-Aug-13 18:30N 37°23' E 025°06'3 6.2
2018-Aug-13 18:00N 37°23' E 025°10'3 6.0
2018-Aug-13 17:30N 37°22' E 025°14'1 1.0
2018-Aug-13 17:00N 37°23' E 025°14'0 0.0
2018-Aug-13 16:30N 37°23' E 025°14'0 0.0
2018-Aug-13 16:00N 37°23' E 025°14'0 0.0
2018-Aug-13 15:30N 37°23' E 025°14'2 4.3
2018-Aug-13 15:00N 37°21' E 025°17'3 6.1
2018-Aug-13 14:30N 37°21' E 025°20'3 6.3
2018-Aug-13 14:00N 37°22' E 025°24'3 6.3
2018-Aug-13 13:30N 37°23' E 025°28'3 6.8
2018-Aug-13 13:00N 37°24' E 025°32'3 6.9
2018-Aug-13 12:30N 37°27' E 025°34'3 6.2
2018-Aug-13 12:00N 37°30' E 025°36'3 6.6
2018-Aug-13 11:30N 37°33' E 025°39'2 5.1
2018-Aug-13 11:00N 37°34' E 025°41'2 4.3
2018-Aug-13 10:30N 37°33' E 025°44'3 5.1
2018-Aug-13 10:00N 37°33' E 025°47'3 5.2
2018-Aug-13 09:30N 37°32' E 025°50'3 5.5
2018-Aug-13 09:00N 37°31' E 025°53'  
2018-Aug-05 01:50N 36°59' E 025°22'2 7.3
2018-Aug-05 01:30N 37°01' E 025°21'3 6.1
2018-Aug-05 01:00N 37°05' E 025°20'0 0.1
2018-Aug-05 00:30N 37°04' E 025°20'0 0.0
2018-Aug-05 00:00N 37°04' E 025°20'0 0.0
2018-Aug-04 23:30N 37°04' E 025°20'0 0.0
2018-Aug-04 23:00N 37°04' E 025°20'0 0.0
2018-Aug-04 22:30N 37°04' E 025°20'0 0.0
2018-Aug-04 22:00N 37°04' E 025°20'0 0.0
2018-Aug-04 21:30N 37°04' E 025°20'0 0.0
2018-Aug-04 21:00N 37°04' E 025°20'0 0.0
2018-Aug-04 20:30N 37°04' E 025°20'0 0.0
2018-Aug-04 20:00N 37°04' E 025°20'0 0.0
2018-Aug-04 19:30N 37°04' E 025°20'0 0.0
2018-Aug-04 19:00N 37°04' E 025°20'0 0.1
2018-Aug-04 18:30N 37°04' E 025°20'0 0.1
2018-Aug-04 18:00N 37°04' E 025°20'0 0.0
2018-Aug-04 17:30N 37°04' E 025°20'0 0.0
2018-Aug-04 17:00N 37°04' E 025°20'0 0.0
2018-Aug-04 16:30N 37°04' E 025°20'0 0.0
2018-Aug-04 16:00N 37°04' E 025°20'0 0.0
2018-Aug-04 15:30N 37°04' E 025°20'0 0.0
2018-Aug-04 15:00N 37°04' E 025°20'  

Dump ship's entire track history